메인 페이지
METAR-TAF:

METAR-TAF

공항 :

위니펙, 매니토바, 캐나다

위도: 49-54N, 경도: 097-14W, 고도: 239m

현재 날씨관측

예보는 1 시간 5분 전, 05:00시(UTC)에 발표되었습니다.
서북서5kt
온도 10°C
습도 93%
기압 1020 hPa
시정: 24.1km
맑음

METAR: CYWG 170500Z 29005KT 15SM SKC 10/09 A3013 RMK SLP208

시각: 01:05 (06:05 UTC)

예보

예보는 27분 전, 05:38시(UTC)에 발표되었습니다.
예보 대상 시간: 17일 06시부터 18일 06시까지 (UTC)
서북서3kt
시정: 10km
맑음
일시적
17일 07시부터 17일 12시까지 (UTC)
박무
확률 30%
17일 08시부터 17일 10시까지 (UTC)
시정: 0.8km
고도 400ft 상공
안개
17일 1200시부터 (UTC)
서남서3kt
시정: 10km
맑음
17일 1500시부터 (UTC)
서남서6kt
시정: 10km
고도 1500ft 상공 구름 조금
17일 1700시부터 (UTC)
남서8kt
시정: 10km
고도 2500ft 상공 구름 조금
17일 1900시부터 (UTC)
남서8kt
시정: 10km
맑음
전환 중
18일 02시부터 18일 04시까지 (UTC)
5kt

TAF: CYWG 170538Z 1706/1806 30003KT P6SM SKC TEMPO 1707/1712 11/2SM BR PROB30 1708/1710 1/2SM FG VV004 FM171200 24003KT P6SM SKC FM171500 24006KT P6SM FEW015 FM171700 23008KT P6SM FEW025 FM171900 22008KT P6SM SKC BECMG 1802/1804 17005KT RMK NXT FCST BY 171200Z

4,000개 이상의 공항 관측 자료 및 예보 (METAR 및 TAF 보고).

지도상에서 검색 가능한 기상관측소가 노란 점과 빨간 점으로 표시되어 있습니다.

기상관측소 명을 보려면 표시 위로 마우스를 이동하세요.

날씨 관측과 예보를 보려면 클릭하세요.

지도 변경 : 확대하려면 엑스 표시가 있는 녹색 버튼, 축소하려면 빼기 표시가 있는 녹색 버튼, 다음 페이지의 지도를 보려면 녹색 화살표를 클릭하세요.


METAR-TAF: